createdAt,value
2022-08-23T00:01:50.734Z,53.55
2022-08-23T00:04:30.355Z,53.60
2022-08-23T00:07:05.575Z,53.43
2022-08-23T00:09:32.620Z,53.48
2022-08-23T00:12:10.711Z,53.25
2022-08-23T00:14:43.134Z,53.17
2022-08-23T00:17:34.254Z,53.46
2022-08-23T00:20:14.649Z,53.30
2022-08-23T00:22:42.406Z,53.68
2022-08-23T00:25:13.538Z,53.96
2022-08-23T00:27:40.920Z,53.91
2022-08-23T00:30:11.689Z,54.12
2022-08-23T00:32:41.173Z,53.88
2022-08-23T00:35:12.129Z,54.16
2022-08-23T00:37:39.855Z,53.96
2022-08-23T00:40:10.400Z,53.83
2022-08-23T00:43:40.406Z,53.64
2022-08-23T00:47:08.022Z,53.92
2022-08-23T00:49:38.652Z,54.31
2022-08-23T00:52:29.445Z,54.12
2022-08-23T00:54:57.598Z,54.11
2022-08-23T00:57:25.373Z,54.14
2022-08-23T00:59:52.237Z,54.24
2022-08-23T01:02:20.371Z,54.36
2022-08-23T01:04:59.803Z,54.14
2022-08-23T01:07:51.277Z,54.05
2022-08-23T01:10:43.970Z,54.25
2022-08-23T01:13:22.241Z,54.80
2022-08-23T01:16:03.706Z,54.71
2022-08-23T01:18:32.458Z,54.83
2022-08-23T01:21:10.538Z,55.10
2022-08-23T01:23:49.437Z,55.05
2022-08-23T01:26:22.231Z,54.34
2022-08-23T01:28:50.532Z,54.68
2022-08-23T01:31:19.129Z,55.41
2022-08-23T01:33:56.955Z,56.16
2022-08-23T01:36:24.782Z,56.88
2022-08-23T01:38:51.729Z,57.53
2022-08-23T01:41:19.530Z,57.56
2022-08-23T01:43:46.743Z,57.24
2022-08-23T01:46:22.418Z,57.18
2022-08-23T01:48:51.567Z,57.30
2022-08-23T01:51:21.457Z,57.20
2022-08-23T01:53:48.850Z,57.13
2022-08-23T01:56:38.177Z,57.08
2022-08-23T01:59:11.086Z,58.89
2022-08-23T02:01:38.305Z,57.85
2022-08-23T02:04:05.904Z,56.11
2022-08-23T02:06:33.550Z,55.90
2022-08-23T02:09:03.852Z,55.77
2022-08-23T02:11:36.565Z,55.55
2022-08-23T02:14:16.163Z,55.53
2022-08-23T02:16:58.098Z,55.42
2022-08-23T02:19:35.429Z,55.80
2022-08-23T02:22:03.794Z,55.96
2022-08-23T02:24:31.495Z,55.51
2022-08-23T02:27:04.169Z,55.82
2022-08-23T02:29:35.232Z,56.06
2022-08-23T02:32:08.073Z,56.08
2022-08-23T02:34:37.363Z,56.31
2022-08-23T02:37:06.176Z,56.58
2022-08-23T02:39:33.204Z,56.68
2022-08-23T02:42:00.976Z,57.11
2022-08-23T02:44:28.463Z,56.88
2022-08-23T02:46:56.225Z,57.01
2022-08-23T02:49:23.133Z,57.17
2022-08-23T02:51:50.074Z,56.99
2022-08-23T02:54:16.942Z,57.24
2022-08-23T02:56:44.083Z,57.41
2022-08-23T02:59:10.955Z,57.02
2022-08-23T03:01:39.568Z,57.25
2022-08-23T03:04:11.226Z,57.75
2022-08-23T03:06:38.804Z,57.43
2022-08-23T03:09:07.478Z,57.92
2022-08-23T03:11:35.556Z,57.91
2022-08-23T03:14:03.015Z,57.46
2022-08-23T03:16:30.497Z,57.63
2022-08-23T03:18:57.728Z,57.69
2022-08-23T03:21:27.704Z,57.79
2022-08-23T03:23:55.403Z,58.07
2022-08-23T03:26:22.454Z,58.58
2022-08-23T03:28:49.590Z,58.59
2022-08-23T03:31:17.748Z,58.57
2022-08-23T03:33:45.431Z,59.67
2022-08-23T03:36:13.242Z,58.86
2022-08-23T03:38:41.896Z,58.91
2022-08-23T03:41:09.741Z,59.56
2022-08-23T03:43:37.954Z,59.32
2022-08-23T03:46:06.762Z,59.61
2022-08-23T03:48:34.390Z,59.87
2022-08-23T03:51:01.319Z,60.11
2022-08-23T03:53:28.239Z,60.23
2022-08-23T03:55:56.439Z,60.16
2022-08-23T03:58:24.265Z,60.35
2022-08-23T04:00:51.113Z,60.51
2022-08-23T04:03:18.176Z,60.36
2022-08-23T04:05:45.306Z,59.77
2022-08-23T04:08:13.793Z,60.08
2022-08-23T04:10:42.277Z,60.69
2022-08-23T04:13:10.465Z,61.39
2022-08-23T04:15:37.779Z,61.73
2022-08-23T04:18:06.333Z,61.82
2022-08-23T04:20:36.840Z,61.65
2022-08-23T04:23:03.963Z,61.65
2022-08-23T04:25:35.608Z,61.49
2022-08-23T04:28:03.980Z,61.85
2022-08-23T04:30:33.337Z,61.57
2022-08-23T04:33:01.733Z,61.21
2022-08-23T04:35:29.770Z,61.70
2022-08-23T04:37:56.739Z,61.86
2022-08-23T04:40:45.164Z,61.35
2022-08-23T04:43:12.779Z,61.63
2022-08-23T04:45:40.942Z,61.40
2022-08-23T04:48:11.866Z,61.21
2022-08-23T04:50:40.497Z,61.01
2022-08-23T04:53:08.061Z,61.00
2022-08-23T04:55:36.397Z,61.36
2022-08-23T04:58:04.861Z,61.68
2022-08-23T05:00:32.209Z,61.27
2022-08-23T05:02:59.830Z,61.46
2022-08-23T05:05:27.488Z,61.77
2022-08-23T05:07:55.754Z,61.99
2022-08-23T05:10:22.858Z,62.20
2022-08-23T05:12:49.876Z,62.38
2022-08-23T05:15:17.274Z,62.22
2022-08-23T05:17:44.268Z,61.79
2022-08-23T05:20:11.800Z,61.08
2022-08-23T05:22:41.708Z,61.15
2022-08-23T05:25:09.756Z,61.17
2022-08-23T05:27:37.426Z,61.05
2022-08-23T05:30:06.961Z,60.82
2022-08-23T05:32:34.061Z,60.62
2022-08-23T05:35:00.980Z,60.26
2022-08-23T05:37:28.056Z,60.29
2022-08-23T05:39:54.950Z,60.55
2022-08-23T05:42:22.768Z,60.23
2022-08-23T05:44:49.583Z,60.41
2022-08-23T05:47:23.607Z,60.38
2022-08-23T05:49:51.966Z,60.70
2022-08-23T05:52:18.854Z,60.92
2022-08-23T05:54:45.869Z,60.85
2022-08-23T05:57:12.709Z,60.76
2022-08-23T05:59:41.663Z,60.43
2022-08-23T06:02:08.915Z,60.39
2022-08-23T06:04:36.058Z,60.84
2022-08-23T06:07:03.217Z,61.09
2022-08-23T06:09:30.037Z,60.98
2022-08-23T06:11:58.578Z,60.86
2022-08-23T06:14:25.495Z,60.87
2022-08-23T06:16:55.847Z,60.63
2022-08-23T06:19:23.941Z,60.46
2022-08-23T06:21:52.227Z,60.96
2022-08-23T06:24:20.331Z,60.96
2022-08-23T06:26:47.472Z,60.76
2022-08-23T06:29:19.182Z,60.39
2022-08-23T06:31:50.715Z,60.38
2022-08-23T06:34:24.065Z,59.86
2022-08-23T06:36:56.238Z,60.03
2022-08-23T06:39:27.166Z,59.73
2022-08-23T06:42:22.249Z,60.02
2022-08-23T06:44:53.775Z,59.71
2022-08-23T06:47:23.216Z,59.84
2022-08-23T06:49:52.629Z,59.77
2022-08-23T06:52:28.253Z,59.47
2022-08-23T06:54:55.776Z,59.39
2022-08-23T06:57:24.747Z,58.39
2022-08-23T06:59:51.568Z,57.33
2022-08-23T07:02:18.444Z,56.87
2022-08-23T07:04:45.434Z,57.01
2022-08-23T07:07:12.614Z,56.84
2022-08-23T07:09:41.253Z,57.44
2022-08-23T07:12:08.790Z,56.94
2022-08-23T07:14:38.179Z,56.50
2022-08-23T07:17:05.578Z,55.95
2022-08-23T07:19:35.488Z,55.51
2022-08-23T07:22:05.040Z,54.64
2022-08-23T07:24:34.068Z,54.45
2022-08-23T07:27:06.798Z,54.38
2022-08-23T07:29:36.993Z,53.74
2022-08-23T07:32:04.352Z,53.29
2022-08-23T07:34:31.201Z,52.88
2022-08-23T07:36:58.093Z,52.42
2022-08-23T07:39:26.490Z,52.03
2022-08-23T07:41:53.434Z,51.46
2022-08-23T07:44:24.031Z,50.64
2022-08-23T07:46:55.093Z,49.95
2022-08-23T07:49:22.177Z,49.81
2022-08-23T07:51:53.295Z,49.25
2022-08-23T07:54:24.763Z,48.80
2022-08-23T07:56:51.969Z,48.39
2022-08-23T07:59:18.802Z,47.82
2022-08-23T08:01:46.827Z,47.56
2022-08-23T08:04:13.938Z,46.92
2022-08-23T08:07:04.738Z,46.78
2022-08-23T08:09:31.960Z,46.15
2022-08-23T08:11:58.866Z,46.14
2022-08-23T08:14:25.848Z,45.94
2022-08-23T08:16:53.350Z,45.32
2022-08-23T08:19:20.421Z,44.61
2022-08-23T08:21:48.320Z,44.45
2022-08-23T08:24:17.422Z,44.06
2022-08-23T08:26:45.625Z,43.65
2022-08-23T08:29:13.667Z,43.68
2022-08-23T08:31:45.378Z,42.88
2022-08-23T08:34:14.089Z,42.73
2022-08-23T08:36:46.842Z,42.21
2022-08-23T08:39:19.533Z,41.47
2022-08-23T08:42:19.960Z,40.99
2022-08-23T08:45:10.449Z,40.34
2022-08-23T08:47:53.026Z,40.33
2022-08-23T08:50:33.755Z,40.79
2022-08-23T08:53:04.470Z,39.74
2022-08-23T08:55:42.821Z,39.36
2022-08-23T08:58:25.956Z,40.14
2022-08-23T09:00:55.749Z,38.60
2022-08-23T09:03:27.927Z,39.40
2022-08-23T09:06:25.474Z,38.21
2022-08-23T09:09:29.225Z,38.45
2022-08-23T09:12:32.744Z,37.93
2022-08-23T09:15:20.512Z,36.88
2022-08-23T09:18:00.738Z,36.87
2022-08-23T09:20:33.156Z,35.96
2022-08-23T09:23:07.561Z,36.60
2022-08-23T09:25:34.931Z,34.72
2022-08-23T09:28:36.547Z,35.37
2022-08-23T09:31:08.265Z,33.95
2022-08-23T09:33:45.979Z,36.18
2022-08-23T09:36:24.093Z,35.26
2022-08-23T09:39:05.718Z,34.36
2022-08-23T09:41:43.594Z,34.58
2022-08-23T09:44:16.325Z,35.00
2022-08-23T09:46:45.530Z,34.85
2022-08-23T09:49:30.639Z,34.70
2022-08-23T09:52:10.549Z,34.36
2022-08-23T09:54:45.465Z,32.68
2022-08-23T09:57:27.886Z,31.44
2022-08-23T10:00:00.928Z,35.05
2022-08-23T10:02:34.299Z,35.60
2022-08-23T10:05:21.384Z,35.77
2022-08-23T10:08:01.291Z,37.28
2022-08-23T10:10:51.918Z,35.42
2022-08-23T10:13:20.797Z,33.29
2022-08-23T10:16:08.964Z,32.54
2022-08-23T10:19:20.491Z,31.93
2022-08-23T10:22:23.701Z,32.72
2022-08-23T10:25:00.631Z,35.20
2022-08-23T10:28:29.642Z,33.63
2022-08-23T10:31:26.894Z,32.44
2022-08-23T10:34:21.658Z,30.93
2022-08-23T10:37:02.991Z,31.77
2022-08-23T10:39:32.142Z,28.25
2022-08-23T10:42:17.805Z,29.59
2022-08-23T10:44:58.874Z,30.20
2022-08-23T10:47:41.954Z,29.34
2022-08-23T10:50:19.289Z,30.41
2022-08-23T10:53:02.915Z,27.08
2022-08-23T10:56:02.722Z,28.72
2022-08-23T10:58:52.288Z,32.23
2022-08-23T11:01:53.721Z,29.65
2022-08-23T11:04:53.523Z,30.01
2022-08-23T11:07:29.690Z,29.98
2022-08-23T11:10:34.417Z,27.61
2022-08-23T11:13:14.145Z,28.94
2022-08-23T11:16:00.661Z,30.29
2022-08-23T11:18:47.142Z,29.00
2022-08-23T11:21:28.408Z,26.57
2022-08-23T11:24:15.723Z,26.21
2022-08-23T11:26:45.689Z,27.18
2022-08-23T11:29:24.629Z,28.74
2022-08-23T11:32:21.366Z,29.11
2022-08-23T11:35:28.519Z,29.49
2022-08-23T11:38:04.992Z,26.29
2022-08-23T11:40:58.096Z,24.12
2022-08-23T11:43:35.288Z,24.39
2022-08-23T11:46:31.693Z,26.12
2022-08-23T11:49:28.445Z,28.61
2022-08-23T11:52:07.122Z,29.06
2022-08-23T11:55:12.403Z,29.14
2022-08-23T11:58:15.692Z,29.71
2022-08-23T12:01:07.137Z,28.94
2022-08-23T12:03:52.169Z,25.81
2022-08-23T12:06:19.571Z,23.02
2022-08-23T12:09:04.760Z,22.54
2022-08-23T12:11:56.421Z,21.53
2022-08-23T12:14:32.492Z,20.50
2022-08-23T12:17:28.560Z,20.46
2022-08-23T12:20:07.110Z,20.51
2022-08-23T12:23:08.284Z,20.57
2022-08-23T12:25:38.577Z,19.37
2022-08-23T12:28:40.831Z,18.42
2022-08-23T12:31:23.778Z,19.18
2022-08-23T12:34:24.925Z,20.13
2022-08-23T12:37:22.560Z,18.01
2022-08-23T12:40:02.650Z,17.99
2022-08-23T12:42:38.210Z,19.66
2022-08-23T12:45:26.125Z,18.86
2022-08-23T12:48:02.650Z,18.27
2022-08-23T12:50:56.947Z,18.04
2022-08-23T12:53:32.524Z,18.08
2022-08-23T12:56:14.239Z,19.29
2022-08-23T12:58:52.081Z,17.11
2022-08-23T13:01:31.328Z,18.12
2022-08-23T13:04:11.375Z,17.76
2022-08-23T13:06:56.917Z,17.33
2022-08-23T13:09:43.157Z,17.96
2022-08-23T13:12:21.159Z,16.77
2022-08-23T13:14:52.651Z,17.08
2022-08-23T13:17:25.230Z,16.46
2022-08-23T13:20:21.837Z,16.85
2022-08-23T13:23:29.071Z,16.38
2022-08-23T13:25:56.892Z,16.74
2022-08-23T13:28:31.182Z,16.61
2022-08-23T13:31:08.513Z,16.40
2022-08-23T13:33:37.157Z,16.26
2022-08-23T13:36:21.754Z,16.72
2022-08-23T13:39:08.011Z,16.32
2022-08-23T13:41:39.181Z,16.72
2022-08-23T13:44:09.877Z,16.96
2022-08-23T13:46:46.969Z,17.06
2022-08-23T13:49:22.195Z,17.00
2022-08-23T13:52:33.282Z,17.86
2022-08-23T13:54:50.779Z,19.09
2022-08-23T13:57:21.790Z,19.90
2022-08-23T13:59:58.695Z,22.49
2022-08-23T14:02:26.265Z,20.06
2022-08-23T14:04:53.376Z,19.07
2022-08-23T14:07:21.014Z,18.18
2022-08-23T14:09:50.971Z,17.87
2022-08-23T14:12:27.618Z,17.58
2022-08-23T14:14:57.478Z,17.14
2022-08-23T14:17:26.057Z,17.50
2022-08-23T14:22:40.960Z,20.07
2022-08-23T14:25:10.330Z,20.94
2022-08-23T14:27:41.094Z,21.08
2022-08-23T14:30:12.469Z,21.68
2022-08-23T14:32:40.756Z,21.23
2022-08-23T14:35:08.902Z,20.26
2022-08-23T14:40:25.529Z,18.84
2022-08-23T14:42:53.694Z,18.65
2022-08-23T14:45:21.664Z,18.68
2022-08-23T14:47:48.716Z,18.42
2022-08-23T14:50:15.900Z,18.68
2022-08-23T14:52:46.505Z,19.14
2022-08-23T14:55:15.163Z,19.50
2022-08-23T14:57:43.405Z,19.04
2022-08-23T15:00:15.168Z,18.95
2022-08-23T15:02:48.684Z,18.98
2022-08-23T15:05:17.092Z,18.88
2022-08-23T15:07:44.458Z,18.72
2022-08-23T15:10:49.792Z,18.66
2022-08-23T15:13:19.136Z,19.03
2022-08-23T15:15:49.270Z,19.93
2022-08-23T15:18:17.586Z,20.73
2022-08-23T15:20:45.584Z,21.37
2022-08-23T15:23:13.653Z,21.13
2022-08-23T15:25:43.801Z,21.63
2022-08-23T15:28:16.020Z,22.11
2022-08-23T15:30:44.601Z,22.01
2022-08-23T15:33:12.230Z,22.24
2022-08-23T15:35:46.995Z,22.56
2022-08-23T15:38:16.567Z,22.51
2022-08-23T15:40:44.411Z,23.03
2022-08-23T15:43:11.770Z,23.05
2022-08-23T15:45:39.516Z,23.35
2022-08-23T15:48:25.849Z,23.53
2022-08-23T15:50:56.521Z,23.47
2022-08-23T15:53:23.698Z,23.14
2022-08-23T15:55:53.088Z,23.48
2022-08-23T15:58:25.109Z,23.65
2022-08-23T16:00:53.856Z,24.14
2022-08-23T16:03:22.836Z,23.96
2022-08-23T16:05:53.835Z,23.81
2022-08-23T16:08:32.660Z,23.84
2022-08-23T16:11:01.894Z,23.92
2022-08-23T16:13:28.874Z,23.68
2022-08-23T16:15:56.233Z,24.24
2022-08-23T16:18:23.512Z,24.04
2022-08-23T16:20:54.169Z,24.12
2022-08-23T16:23:22.778Z,24.21
2022-08-23T16:25:49.564Z,24.23
2022-08-23T16:28:16.847Z,24.57
2022-08-23T16:30:43.781Z,24.39
2022-08-23T16:33:10.866Z,24.66
2022-08-23T16:35:37.842Z,24.99
2022-08-23T16:38:04.909Z,25.13
2022-08-23T16:40:31.836Z,24.83
2022-08-23T16:43:00.966Z,24.89
2022-08-23T16:45:27.959Z,25.00
2022-08-23T16:47:55.039Z,24.74
2022-08-23T16:50:22.389Z,25.01
2022-08-23T16:52:49.339Z,25.24
2022-08-23T16:55:17.012Z,25.57
2022-08-23T16:57:43.921Z,25.04
2022-08-23T17:00:13.453Z,25.59
2022-08-23T17:02:43.873Z,25.68
2022-08-23T17:05:18.823Z,25.94
2022-08-23T17:07:47.796Z,25.58
2022-08-23T17:10:17.770Z,25.99
2022-08-23T17:12:50.667Z,25.91
2022-08-23T17:15:27.910Z,25.96
2022-08-23T17:17:55.813Z,26.35
2022-08-23T17:20:26.512Z,26.42
2022-08-23T17:22:54.299Z,26.34
2022-08-23T17:25:23.247Z,26.89
2022-08-23T17:27:53.603Z,27.02
2022-08-23T17:30:23.999Z,26.67
2022-08-23T17:32:52.075Z,27.17
2022-08-23T17:35:24.998Z,27.31
2022-08-23T17:37:52.815Z,27.20
2022-08-23T17:40:38.914Z,27.37
2022-08-23T17:43:07.669Z,28.30
2022-08-23T17:45:43.862Z,29.68
2022-08-23T17:48:13.298Z,30.56
2022-08-23T17:50:42.111Z,30.05
2022-08-23T17:53:12.215Z,30.30
2022-08-23T17:55:40.913Z,31.45
2022-08-23T17:58:12.277Z,31.49
2022-08-23T18:00:39.625Z,31.19
2022-08-23T18:03:07.256Z,30.53
2022-08-23T18:05:37.146Z,30.47
2022-08-23T18:08:04.411Z,31.21
2022-08-23T18:10:31.614Z,30.63
2022-08-23T18:12:59.759Z,31.10
2022-08-23T18:15:30.172Z,31.69
2022-08-23T18:18:00.522Z,31.52
2022-08-23T18:20:31.326Z,31.68
2022-08-23T18:23:00.165Z,31.71
2022-08-23T18:25:28.044Z,32.42
2022-08-23T18:28:08.445Z,32.56
2022-08-23T18:30:50.624Z,33.83
2022-08-23T18:33:20.431Z,32.90
2022-08-23T18:35:52.342Z,33.49
2022-08-23T18:38:20.107Z,34.55
2022-08-23T18:40:48.528Z,35.03
2022-08-23T18:43:26.921Z,35.03
2022-08-23T18:46:05.023Z,35.26
2022-08-23T18:48:32.676Z,34.91
2022-08-23T18:51:00.192Z,36.20
2022-08-23T18:53:27.902Z,36.85
2022-08-23T18:55:55.184Z,37.00
2022-08-23T18:58:23.017Z,37.10
2022-08-23T19:00:52.893Z,36.92
2022-08-23T19:03:20.457Z,37.24
2022-08-23T19:05:48.153Z,37.60
2022-08-23T19:08:15.819Z,38.59
2022-08-23T19:10:44.463Z,37.50
2022-08-23T19:13:12.137Z,37.10
2022-08-23T19:15:40.529Z,38.14
2022-08-23T19:18:08.215Z,38.57
2022-08-23T19:20:38.000Z,39.10
2022-08-23T19:23:05.815Z,38.49
2022-08-23T19:25:33.932Z,39.98
2022-08-23T19:28:00.980Z,39.95
2022-08-23T19:30:28.327Z,39.31
2022-08-23T19:32:56.684Z,39.41
2022-08-23T19:35:23.991Z,40.25
2022-08-23T19:37:50.852Z,39.35
2022-08-23T19:40:17.923Z,39.79
2022-08-23T19:42:45.738Z,40.57
2022-08-23T19:45:13.441Z,39.38
2022-08-23T19:47:43.201Z,40.05
2022-08-23T19:50:10.500Z,41.29
2022-08-23T19:52:38.324Z,41.10
2022-08-23T19:55:07.462Z,41.47
2022-08-23T19:57:37.220Z,41.77
2022-08-23T20:00:19.088Z,42.34
2022-08-23T20:02:47.491Z,42.24
2022-08-23T20:05:14.795Z,41.94
2022-08-23T20:07:42.187Z,41.71
2022-08-23T20:10:11.247Z,41.65
2022-08-23T20:12:39.490Z,42.14
2022-08-23T20:15:08.999Z,42.80
2022-08-23T20:17:36.593Z,43.69
2022-08-23T20:20:06.513Z,43.01
2022-08-23T20:22:51.780Z,42.67
2022-08-23T20:25:19.241Z,42.31
2022-08-23T20:27:46.157Z,42.71
2022-08-23T20:30:14.573Z,42.86
2022-08-23T20:32:42.539Z,43.15
2022-08-23T20:35:11.335Z,43.39
2022-08-23T20:37:39.556Z,43.67
2022-08-23T20:40:10.368Z,44.11
2022-08-23T20:42:38.892Z,44.60
2022-08-23T20:45:06.782Z,44.62
2022-08-23T20:47:35.189Z,44.98
2022-08-23T20:50:02.530Z,44.95
2022-08-23T20:52:34.036Z,45.10
2022-08-23T20:55:02.017Z,45.43
2022-08-23T20:57:35.817Z,45.14
2022-08-23T21:00:07.754Z,45.08
2022-08-23T21:02:35.285Z,45.15
2022-08-23T21:05:04.640Z,44.89
2022-08-23T21:07:33.569Z,44.66
2022-08-23T21:10:00.465Z,44.88
2022-08-23T21:12:27.256Z,45.48
2022-08-23T21:14:55.313Z,45.70
2022-08-23T21:17:22.125Z,46.15
2022-08-23T21:19:49.053Z,46.27
2022-08-23T21:22:15.922Z,46.20
2022-08-23T21:24:42.862Z,46.31
2022-08-23T21:27:10.053Z,46.52
2022-08-23T21:29:37.793Z,46.01
2022-08-23T21:32:05.387Z,46.17
2022-08-23T21:34:32.855Z,46.25
2022-08-23T21:36:59.870Z,46.33
2022-08-23T21:39:26.806Z,46.93
2022-08-23T21:41:55.707Z,47.16
2022-08-23T21:44:24.603Z,47.24
2022-08-23T21:46:51.988Z,47.71
2022-08-23T21:49:20.947Z,47.46
2022-08-23T21:51:48.987Z,47.35
2022-08-23T21:54:18.218Z,47.67
2022-08-23T21:56:45.994Z,48.02
2022-08-23T21:59:17.799Z,48.98
2022-08-23T22:01:45.883Z,49.27
2022-08-23T22:04:15.518Z,48.71
2022-08-23T22:06:48.189Z,48.39
2022-08-23T22:09:19.531Z,48.57
2022-08-23T22:11:53.417Z,48.97
2022-08-23T22:14:24.123Z,48.64
2022-08-23T22:16:55.384Z,48.52
2022-08-23T22:19:23.057Z,48.37
2022-08-23T22:21:52.387Z,48.47
2022-08-23T22:24:25.195Z,48.67
2022-08-23T22:26:53.602Z,48.88
2022-08-23T22:29:20.802Z,49.15
2022-08-23T22:31:48.539Z,49.20
2022-08-23T22:34:15.803Z,48.86
2022-08-23T22:36:42.786Z,48.80
2022-08-23T22:39:10.488Z,48.99
2022-08-23T22:41:38.865Z,49.32
2022-08-23T22:44:06.338Z,49.71
2022-08-23T22:46:34.903Z,50.15
2022-08-23T22:49:02.539Z,50.08
2022-08-23T22:51:33.784Z,50.29
2022-08-23T22:54:06.822Z,50.25
2022-08-23T22:56:42.973Z,50.11
2022-08-23T22:59:11.596Z,50.18
2022-08-23T23:01:52.517Z,50.32
2022-08-23T23:04:23.859Z,50.55
2022-08-23T23:06:51.098Z,50.68
2022-08-23T23:09:19.206Z,50.56
2022-08-23T23:11:46.993Z,50.64
2022-08-23T23:14:17.331Z,51.08
2022-08-23T23:16:45.457Z,51.26
2022-08-23T23:19:32.061Z,51.52
2022-08-23T23:22:00.099Z,51.45
2022-08-23T23:24:32.196Z,50.97
2022-08-23T23:27:02.401Z,51.52
2022-08-23T23:29:31.621Z,51.66
2022-08-23T23:32:00.125Z,51.83
2022-08-23T23:34:28.254Z,52.16
2022-08-23T23:36:57.206Z,51.63
2022-08-23T23:39:24.870Z,52.08
2022-08-23T23:41:53.702Z,52.43
2022-08-23T23:44:24.295Z,52.27
2022-08-23T23:46:58.843Z,52.56
2022-08-23T23:49:32.105Z,52.57
2022-08-23T23:51:59.934Z,51.42
2022-08-23T23:54:26.883Z,50.45
2022-08-23T23:56:53.924Z,50.06
2022-08-23T23:59:21.159Z,49.62
